createdAt,value
2018-01-18T00:00:14.357Z,97688.83
2018-01-18T00:02:42.800Z,97688.69
2018-01-18T00:05:11.297Z,97706.23
2018-01-18T00:07:39.704Z,97711.53
2018-01-18T00:10:08.133Z,97721.69
2018-01-18T00:12:36.577Z,97711.95
2018-01-18T00:15:05.025Z,97724.68
2018-01-18T00:17:33.442Z,97734.27
2018-01-18T00:20:01.859Z,97729.76
2018-01-18T00:22:30.296Z,97748.93
2018-01-18T00:24:58.781Z,97742.48
2018-01-18T00:27:27.216Z,97751.41
2018-01-18T00:29:55.684Z,97757.69
2018-01-18T00:32:24.178Z,97744.38
2018-01-18T00:34:52.576Z,97768.23
2018-01-18T00:37:21.065Z,97766.08
2018-01-18T00:39:49.557Z,97769.61
2018-01-18T00:42:18.002Z,97767.05
2018-01-18T00:44:46.459Z,97761.31
2018-01-18T00:47:14.857Z,97762.86
2018-01-18T00:49:43.297Z,97770.50
2018-01-18T00:52:11.696Z,97767.14
2018-01-18T00:54:40.193Z,97764.80
2018-01-18T00:57:08.593Z,97769.31
2018-01-18T00:59:37.033Z,97763.09
2018-01-18T01:02:05.454Z,97766.97
2018-01-18T01:04:33.918Z,97768.98
2018-01-18T01:07:02.421Z,97765.42
2018-01-18T01:09:30.824Z,97770.91
2018-01-18T01:11:59.341Z,97765.42
2018-01-18T01:14:27.745Z,97766.80
2018-01-18T01:16:56.232Z,97753.03
2018-01-18T01:19:24.644Z,97752.23
2018-01-18T01:21:53.092Z,97726.94
2018-01-18T01:24:21.549Z,97746.61
2018-01-18T01:26:50.005Z,97748.38
2018-01-18T01:29:18.457Z,97735.30
2018-01-18T01:31:46.892Z,97746.83
2018-01-18T01:34:15.304Z,97748.59
2018-01-18T01:36:43.732Z,97762.86
2018-01-18T01:39:12.132Z,97760.92
2018-01-18T01:41:40.631Z,97784.87
2018-01-18T01:44:09.024Z,97793.58
2018-01-18T01:46:37.466Z,97805.82
2018-01-18T01:49:05.903Z,97812.66
2018-01-18T01:51:34.349Z,97831.26
2018-01-18T01:54:02.780Z,97842.47
2018-01-18T01:56:31.233Z,97865.16
2018-01-18T01:58:59.660Z,97860.66
2018-01-18T02:01:28.048Z,97852.67
2018-01-18T02:03:56.476Z,97849.84
2018-01-18T02:06:24.939Z,97845.74
2018-01-18T02:08:53.380Z,97848.83
2018-01-18T02:11:21.772Z,97850.34
2018-01-18T02:13:50.228Z,97861.30
2018-01-18T02:16:18.690Z,97856.39
2018-01-18T02:18:47.122Z,97814.69
2018-01-18T02:21:15.611Z,97846.02
2018-01-18T02:23:43.977Z,97855.82
2018-01-18T02:26:12.401Z,97864.83
2018-01-18T02:28:40.849Z,97857.76
2018-01-18T02:31:09.345Z,97869.69
2018-01-18T02:33:37.793Z,97866.94
2018-01-18T02:36:06.221Z,97877.72
2018-01-18T02:38:34.722Z,97874.41
2018-01-18T02:41:03.183Z,97877.33
2018-01-18T02:43:31.584Z,97891.41
2018-01-18T02:46:00.072Z,97896.66
2018-01-18T02:48:28.465Z,97878.94
2018-01-18T02:50:56.949Z,97893.36
2018-01-18T02:53:25.407Z,97870.80
2018-01-18T02:55:53.848Z,97876.52
2018-01-18T02:58:22.233Z,97888.45
2018-01-18T03:00:50.709Z,97879.19
2018-01-18T03:03:19.137Z,97856.23
2018-01-18T03:05:47.580Z,97891.50
2018-01-18T03:08:16.085Z,97864.84
2018-01-18T03:10:44.469Z,97871.86
2018-01-18T03:13:12.913Z,97875.80
2018-01-18T03:15:41.386Z,97874.59
2018-01-18T03:18:09.831Z,97871.78
2018-01-18T03:20:38.265Z,97883.70
2018-01-18T03:23:06.711Z,97866.70
2018-01-18T03:25:35.128Z,97859.23
2018-01-18T03:28:03.552Z,97887.61
2018-01-18T03:30:32.041Z,97890.52
2018-01-18T03:33:00.430Z,97917.73
2018-01-18T03:35:28.877Z,97923.38
2018-01-18T03:37:57.325Z,97903.89
2018-01-18T03:40:25.697Z,97893.66
2018-01-18T03:42:54.141Z,97933.18
2018-01-18T03:45:22.534Z,97930.79
2018-01-18T03:47:50.953Z,97935.92
2018-01-18T03:50:19.341Z,97958.39
2018-01-18T03:52:47.829Z,97943.19
2018-01-18T03:55:16.294Z,97959.19
2018-01-18T03:57:44.724Z,97964.52
2018-01-18T04:00:13.199Z,97952.91
2018-01-18T04:02:41.681Z,97963.55
2018-01-18T04:05:10.060Z,97967.26
2018-01-18T04:07:38.588Z,97960.02
2018-01-18T04:10:07.936Z,97971.94
2018-01-18T04:12:36.340Z,97987.80
2018-01-18T04:15:04.829Z,97998.09
2018-01-18T04:17:33.274Z,97975.08
2018-01-18T04:20:01.757Z,98010.66
2018-01-18T04:22:30.205Z,98013.55
2018-01-18T04:24:58.641Z,98040.20
2018-01-18T04:27:27.137Z,98042.95
2018-01-18T04:29:55.581Z,98049.79
2018-01-18T04:32:23.972Z,98066.53
2018-01-18T04:34:52.393Z,98072.41
2018-01-18T04:37:20.821Z,98076.91
2018-01-18T04:39:49.245Z,98034.47
2018-01-18T04:42:17.685Z,98084.01
2018-01-18T04:44:46.191Z,98091.66
2018-01-18T04:47:14.581Z,98111.78
2018-01-18T04:49:43.057Z,98124.67
2018-01-18T04:52:11.454Z,98102.38
2018-01-18T04:54:39.956Z,98114.44
2018-01-18T04:57:08.416Z,98124.67
2018-01-18T04:59:36.820Z,98131.92
2018-01-18T05:02:05.319Z,98090.45
2018-01-18T05:04:33.774Z,98133.60
2018-01-18T05:07:02.289Z,98147.55
2018-01-18T05:09:30.668Z,98162.99
2018-01-18T05:11:59.053Z,98165.08
2018-01-18T05:14:27.534Z,98168.52
2018-01-18T05:16:55.925Z,98145.52
2018-01-18T05:19:24.374Z,98174.91
2018-01-18T05:21:52.796Z,98175.72
2018-01-18T05:24:21.245Z,98168.30
2018-01-18T05:26:49.741Z,98178.68
2018-01-18T05:29:18.192Z,98170.37
2018-01-18T05:31:46.584Z,98195.37
2018-01-18T05:34:15.005Z,98211.22
2018-01-18T05:36:43.397Z,98208.09
2018-01-18T05:39:11.821Z,98228.93
2018-01-18T05:41:40.265Z,98231.67
2018-01-18T05:44:08.701Z,98235.47
2018-01-18T05:46:37.073Z,98250.69
2018-01-18T05:49:05.497Z,98249.32
2018-01-18T05:51:33.885Z,98274.50
2018-01-18T05:54:02.305Z,98274.36
2018-01-18T05:56:30.749Z,98284.48
2018-01-18T05:58:59.177Z,98276.80
2018-01-18T06:01:27.647Z,98305.89
2018-01-18T06:03:56.133Z,98302.05
2018-01-18T06:06:24.556Z,98289.41
2018-01-18T06:08:52.946Z,98322.34
2018-01-18T06:11:21.376Z,98315.57
2018-01-18T06:13:49.893Z,98290.39
2018-01-18T06:16:18.377Z,98334.91
2018-01-18T06:18:46.874Z,98363.51
2018-01-18T06:21:15.337Z,98359.52
2018-01-18T06:23:43.857Z,98355.73
2018-01-18T06:26:12.261Z,98364.53
2018-01-18T06:28:40.692Z,98350.05
2018-01-18T06:31:09.186Z,98393.97
2018-01-18T06:33:37.629Z,98380.77
2018-01-18T06:36:06.084Z,98378.72
2018-01-18T06:38:34.514Z,98248.00
2018-01-18T06:41:03.021Z,98407.48
2018-01-18T06:43:31.405Z,98424.27
2018-01-18T06:45:59.774Z,98425.86
2018-01-18T06:48:28.204Z,98417.13
2018-01-18T06:50:56.665Z,98429.25
2018-01-18T06:53:25.092Z,98437.47
2018-01-18T06:55:53.484Z,98391.25
2018-01-18T06:58:21.909Z,98447.05
2018-01-18T07:00:50.349Z,98463.05
2018-01-18T07:03:18.840Z,98463.14
2018-01-18T07:05:47.229Z,98454.20
2018-01-18T07:08:15.728Z,98474.84
2018-01-18T07:10:44.117Z,98481.01
2018-01-18T07:13:12.545Z,98486.86
2018-01-18T07:15:40.981Z,98496.22
2018-01-18T07:18:09.445Z,98521.58
2018-01-18T07:20:37.922Z,98528.65
2018-01-18T07:23:06.321Z,98513.08
2018-01-18T07:25:34.708Z,98527.97
2018-01-18T07:28:03.158Z,98546.57
2018-01-18T07:30:31.552Z,98565.77
2018-01-18T07:33:00.011Z,98559.19
2018-01-18T07:35:28.400Z,98553.45
2018-01-18T07:37:56.825Z,98559.00
2018-01-18T07:40:25.313Z,98574.88
2018-01-18T07:42:53.705Z,98595.73
2018-01-18T07:45:22.221Z,98587.75
2018-01-18T07:47:50.616Z,98600.42
2018-01-18T07:50:19.121Z,98615.41
2018-01-18T07:52:47.617Z,98601.67
2018-01-18T07:55:16.025Z,98609.95
2018-01-18T07:57:44.452Z,98639.52
2018-01-18T08:00:12.881Z,98630.34
2018-01-18T08:02:46.901Z,98631.53
2018-01-18T08:05:15.390Z,98623.88
2018-01-18T08:07:43.796Z,98634.06
2018-01-18T08:10:12.189Z,98637.61
2018-01-18T08:12:40.622Z,98658.87
2018-01-18T08:15:09.109Z,98646.13
2018-01-18T08:17:37.605Z,98638.31
2018-01-18T08:20:05.993Z,98638.73
2018-01-18T08:22:34.424Z,98631.81
2018-01-18T08:25:02.812Z,98666.70
2018-01-18T08:27:31.236Z,98672.36
2018-01-18T08:29:59.708Z,98667.98
2018-01-18T08:32:28.202Z,98690.45
2018-01-18T08:34:56.577Z,98685.69
2018-01-18T08:37:24.997Z,98692.17
2018-01-18T08:39:53.408Z,98696.85
2018-01-18T08:44:56.453Z,98700.25
2018-01-18T08:47:24.857Z,98721.77
2018-01-18T08:49:53.375Z,98717.25
2018-01-18T08:52:21.764Z,98717.33
2018-01-18T08:54:50.273Z,98722.28
2018-01-18T08:57:18.922Z,98727.59
2018-01-18T08:59:47.405Z,98707.17
2018-01-18T09:02:15.808Z,98729.92
2018-01-18T09:04:44.248Z,98748.89
2018-01-18T09:07:12.644Z,98746.84
2018-01-18T09:09:41.094Z,98764.03
2018-01-18T09:12:09.524Z,98756.98
2018-01-18T09:14:38.016Z,98761.25
2018-01-18T09:17:06.441Z,98744.89
2018-01-18T09:19:34.910Z,98738.71
2018-01-18T09:22:03.390Z,98777.42
2018-01-18T09:24:31.892Z,98767.11
2018-01-18T09:27:00.284Z,98762.47
2018-01-18T09:29:28.779Z,98777.66
2018-01-18T09:31:57.225Z,98740.02
2018-01-18T09:34:25.654Z,98791.17
2018-01-18T09:36:54.118Z,98769.70
2018-01-18T09:39:22.593Z,98793.39
2018-01-18T09:41:51.099Z,98795.97
2018-01-18T09:44:19.561Z,98786.81
2018-01-18T09:46:47.996Z,98785.30
2018-01-18T09:49:16.384Z,98808.33
2018-01-18T09:51:44.869Z,98786.55
2018-01-18T09:54:13.352Z,98805.64
2018-01-18T09:56:41.790Z,98804.70
2018-01-18T09:59:10.180Z,98816.58
2018-01-18T10:01:38.572Z,98677.92
2018-01-18T10:04:07.061Z,98817.08
2018-01-18T10:06:35.453Z,98826.66
2018-01-18T10:09:03.957Z,98767.06
2018-01-18T10:11:32.409Z,98806.05
2018-01-18T10:14:00.836Z,98807.21
2018-01-18T10:16:29.331Z,98792.73
2018-01-18T10:18:57.842Z,98814.06
2018-01-18T10:21:26.240Z,98833.02
2018-01-18T10:23:54.725Z,98821.36
2018-01-18T10:26:23.236Z,98832.42
2018-01-18T10:28:51.630Z,98828.85
2018-01-18T10:31:20.065Z,98840.25
2018-01-18T10:33:48.476Z,98754.34
2018-01-18T10:36:16.921Z,98838.69
2018-01-18T10:38:45.423Z,98821.88
2018-01-18T10:41:13.926Z,98823.01
2018-01-18T10:43:42.361Z,98847.75
2018-01-18T10:46:10.756Z,98848.72
2018-01-18T10:48:39.172Z,98852.91
2018-01-18T10:51:07.673Z,98847.30
2018-01-18T10:53:36.064Z,98859.63
2018-01-18T10:56:04.448Z,98852.59
2018-01-18T10:58:32.889Z,98861.17
2018-01-18T11:01:01.266Z,98860.09
2018-01-18T11:03:29.689Z,98838.84
2018-01-18T11:05:58.137Z,98858.80
2018-01-18T11:08:26.564Z,98860.84
2018-01-18T11:10:54.994Z,98877.50
2018-01-18T11:13:23.456Z,98863.49
2018-01-18T11:15:51.886Z,98866.89
2018-01-18T11:18:20.296Z,98881.13
2018-01-18T11:20:48.921Z,98832.80
2018-01-18T11:23:17.374Z,98858.16
2018-01-18T11:25:45.835Z,98893.70
2018-01-18T11:28:14.313Z,98855.53
2018-01-18T11:30:42.795Z,98873.63
2018-01-18T11:33:11.202Z,98879.13
2018-01-18T11:35:39.632Z,98848.77
2018-01-18T11:38:08.122Z,98858.92
2018-01-18T11:40:36.508Z,98840.52
2018-01-18T11:43:05.012Z,98894.02
2018-01-18T11:45:33.392Z,98881.22
2018-01-18T11:48:01.821Z,98874.97
2018-01-18T11:50:30.253Z,98902.30
2018-01-18T11:52:58.710Z,98895.14
2018-01-18T11:55:27.181Z,98867.48
2018-01-18T11:57:55.691Z,98895.39
2018-01-18T12:00:24.147Z,98879.73
2018-01-18T12:02:52.551Z,98910.47
2018-01-18T12:05:20.953Z,98891.97
2018-01-18T12:07:49.380Z,98908.03
2018-01-18T12:10:17.877Z,98879.38
2018-01-18T12:12:46.308Z,98910.23
2018-01-18T12:15:14.697Z,98902.23
2018-01-18T12:17:43.120Z,98943.14
2018-01-18T12:20:11.561Z,98922.23
2018-01-18T14:36:09.968Z,99137.87
2018-01-18T14:38:38.348Z,99161.36
2018-01-18T14:41:06.788Z,99155.91
2018-01-18T14:43:35.190Z,99151.42
2018-01-18T14:46:03.585Z,99198.19
2018-01-18T14:48:32.023Z,99208.15
2018-01-18T14:51:00.522Z,99206.08
2018-01-18T14:53:28.917Z,99186.07
2018-01-18T14:55:57.397Z,99242.42
2018-01-18T14:58:25.908Z,99227.11
2018-01-18T15:00:54.360Z,99251.58
2018-01-18T15:03:22.773Z,99248.89
2018-01-18T15:05:51.216Z,99259.27
2018-01-18T15:08:20.222Z,99235.38
2018-01-18T15:10:48.928Z,99285.28
2018-01-18T15:13:17.451Z,99300.68
2018-01-18T15:15:46.075Z,99280.12
2018-01-18T15:18:14.609Z,99292.52
2018-01-18T15:20:42.982Z,99327.39
2018-01-18T15:23:11.485Z,99336.89
2018-01-18T15:25:39.941Z,99347.58
2018-01-18T15:28:08.388Z,99321.53
2018-01-18T15:30:36.769Z,99361.02
2018-01-18T15:33:05.193Z,99364.85
2018-01-18T15:35:33.613Z,99358.58
2018-01-18T15:38:02.113Z,99364.84
2018-01-18T15:40:30.537Z,99350.78
2018-01-18T15:42:58.924Z,99343.04
2018-01-18T15:45:27.339Z,99370.59
2018-01-18T15:47:55.769Z,99369.98
2018-01-18T15:50:24.165Z,99377.26
2018-01-18T15:52:52.585Z,99369.92
2018-01-18T15:55:21.062Z,99377.02
2018-01-18T15:57:49.477Z,99390.20
2018-01-18T16:00:17.902Z,99409.05
2018-01-18T16:02:46.318Z,99394.76
2018-01-18T16:05:14.769Z,99430.25
2018-01-18T16:07:43.165Z,99414.33
2018-01-18T16:10:11.597Z,99434.16
2018-01-18T16:12:40.087Z,99438.50
2018-01-18T16:15:08.514Z,99443.98
2018-01-18T16:17:36.933Z,99439.74
2018-01-18T16:20:05.372Z,99460.30
2018-01-18T16:22:33.834Z,99465.27
2018-01-18T16:25:02.281Z,99477.56
2018-01-18T16:27:30.763Z,99479.86
2018-01-18T16:29:59.262Z,99487.41
2018-01-18T16:32:27.664Z,99507.98
2018-01-18T16:34:56.131Z,99510.66
2018-01-18T16:37:24.612Z,99512.62
2018-01-18T16:39:53.132Z,99520.25
2018-01-18T16:42:21.581Z,99525.52
2018-01-18T16:44:50.018Z,99528.92
2018-01-18T16:47:18.469Z,99538.55
2018-01-18T16:49:46.959Z,99530.68
2018-01-18T16:52:15.446Z,99526.08
2018-01-18T16:54:43.951Z,99532.61
2018-01-18T16:57:12.345Z,99532.92
2018-01-18T16:59:40.833Z,99535.91
2018-01-18T17:02:09.313Z,99540.97
2018-01-18T17:04:37.841Z,99546.59
2018-01-18T17:07:06.290Z,99543.39
2018-01-18T17:09:34.674Z,99536.36
2018-01-18T17:12:03.171Z,99555.45
2018-01-18T17:14:31.596Z,99561.14
2018-01-18T17:16:59.973Z,99556.10
2018-01-18T17:19:28.408Z,99564.34
2018-01-18T17:21:56.824Z,99555.06
2018-01-18T17:24:25.229Z,99555.47
2018-01-18T17:26:53.685Z,99563.85
2018-01-18T17:29:22.076Z,99571.08
2018-01-18T17:31:50.524Z,99552.73
2018-01-18T17:34:18.947Z,99562.66
2018-01-18T17:36:47.393Z,99566.58
2018-01-18T17:39:15.774Z,99572.29
2018-01-18T17:41:44.256Z,99566.58
2018-01-18T17:44:12.746Z,99579.61
2018-01-18T17:46:41.185Z,99582.00
2018-01-18T17:49:09.572Z,99565.16
2018-01-18T17:51:38.077Z,99574.66
2018-01-18T17:54:06.467Z,99577.95
2018-01-18T17:56:34.942Z,99570.91
2018-01-18T17:59:03.402Z,99564.13
2018-01-18T18:01:31.839Z,99559.55
2018-01-18T18:04:00.269Z,99568.97
2018-01-18T18:06:28.719Z,99561.26
2018-01-18T18:08:57.137Z,99566.94
2018-01-18T18:11:25.627Z,99536.45
2018-01-18T18:13:54.073Z,99555.66
2018-01-18T18:16:22.498Z,99550.83
2018-01-18T18:18:50.926Z,99525.52
2018-01-18T18:21:19.308Z,99536.98
2018-01-18T18:23:47.733Z,99529.63
2018-01-18T18:26:16.139Z,99529.93
2018-01-18T18:28:44.596Z,99537.47
2018-01-18T18:31:13.004Z,99539.42
2018-01-18T18:33:41.457Z,99522.41
2018-01-18T18:36:09.842Z,99530.34
2018-01-18T18:38:38.300Z,99544.45
2018-01-18T18:41:06.739Z,99522.59
2018-01-18T18:43:35.120Z,99543.36
2018-01-18T18:46:03.544Z,99544.19
2018-01-18T18:48:32.070Z,99544.37
2018-01-18T18:51:00.576Z,99547.25
2018-01-18T18:53:28.969Z,99555.00
2018-01-18T18:55:57.449Z,99555.70
2018-01-18T18:58:25.873Z,99556.84
2018-01-18T19:00:54.380Z,99560.89
2018-01-18T19:03:22.837Z,99562.73
2018-01-18T19:05:51.222Z,99557.06
2018-01-18T19:08:19.649Z,99562.98
2018-01-18T19:10:48.041Z,99576.21
2018-01-18T19:13:16.466Z,99567.83
2018-01-18T19:15:44.886Z,99564.69
2018-01-18T19:18:13.353Z,99569.27
2018-01-18T19:20:41.760Z,99566.64
2018-01-18T19:23:10.130Z,99554.50
2018-01-18T19:25:38.720Z,99556.58
2018-01-18T19:28:07.180Z,99547.44
2018-01-18T19:30:35.573Z,99534.74
2018-01-18T19:33:04.011Z,99527.64
2018-01-18T19:35:32.494Z,99526.10
2018-01-18T19:38:01.148Z,99507.41
2018-01-18T19:40:29.866Z,99472.84
2018-01-18T19:42:58.393Z,99491.82
2018-01-18T19:45:27.096Z,99485.74
2018-01-18T19:47:55.566Z,99499.60
2018-01-18T19:50:24.205Z,99489.98
2018-01-18T19:52:52.733Z,99497.83
2018-01-18T19:55:21.181Z,99480.38
2018-01-18T19:57:49.665Z,99496.98
2018-01-18T20:00:18.290Z,99489.11
2018-01-18T20:02:46.765Z,99501.42
2018-01-18T20:05:15.213Z,99502.64
2018-01-18T20:07:43.632Z,99494.58
2018-01-18T20:10:12.006Z,99489.30
2018-01-18T20:12:40.455Z,99480.95
2018-01-18T20:15:08.899Z,99485.18
2018-01-18T20:17:37.377Z,99471.44
2018-01-18T20:20:05.866Z,99451.23
2018-01-18T20:22:34.331Z,99457.12
2018-01-18T20:25:02.721Z,99454.23
2018-01-18T20:27:31.105Z,99446.78
2018-01-18T20:29:59.536Z,99453.94
2018-01-18T20:32:28.030Z,99441.09
2018-01-18T20:34:56.526Z,99445.14
2018-01-18T20:37:24.996Z,99432.59
2018-01-18T20:39:53.485Z,99443.19
2018-01-18T20:42:21.950Z,99411.23
2018-01-18T20:44:50.336Z,99424.33
2018-01-18T20:47:18.849Z,99408.95
2018-01-18T20:49:47.265Z,99425.24
2018-01-18T20:52:15.688Z,99430.48
2018-01-18T20:54:44.198Z,99424.17
2018-01-18T20:57:12.601Z,99413.94
2018-01-18T20:59:40.989Z,99406.05
2018-01-18T21:02:09.414Z,99418.38
2018-01-18T21:04:37.832Z,99425.40
2018-01-18T21:07:06.209Z,99427.06
2018-01-18T21:09:34.645Z,99431.83
2018-01-18T21:12:03.024Z,99437.50
2018-01-18T21:14:31.525Z,99442.05
2018-01-18T21:16:59.952Z,99449.60
2018-01-18T21:19:28.385Z,99458.83
2018-01-18T21:21:56.768Z,99471.32
2018-01-18T21:24:25.249Z,99464.80
2018-01-18T21:26:53.699Z,99481.09
2018-01-18T21:29:22.196Z,99481.72
2018-01-18T21:31:50.772Z,99480.58
2018-01-18T21:34:19.295Z,99476.35
2018-01-18T21:36:47.778Z,99477.80
2018-01-18T21:39:16.169Z,99468.47
2018-01-18T21:41:44.619Z,99467.98
2018-01-18T21:44:12.985Z,99461.23
2018-01-18T21:46:41.429Z,99459.70
2018-01-18T21:49:09.909Z,99450.61
2018-01-18T21:51:38.385Z,99438.12
2018-01-18T21:54:06.776Z,99449.48
2018-01-18T21:56:35.203Z,99443.35
2018-01-18T21:59:03.617Z,99441.21
2018-01-18T22:01:32.045Z,99432.62
2018-01-18T22:04:00.468Z,99434.48
2018-01-18T22:06:28.868Z,99425.40
2018-01-18T22:08:57.253Z,99431.72
2018-01-18T22:11:25.694Z,99425.06
2018-01-18T22:13:54.200Z,99440.39
2018-01-18T22:16:22.649Z,99445.12
2018-01-18T22:18:51.036Z,99438.84
2018-01-18T22:21:19.459Z,99445.13
2018-01-18T22:23:47.970Z,99437.58
2018-01-18T22:26:16.453Z,99431.08
2018-01-18T22:28:44.905Z,99431.31
2018-01-18T22:31:13.293Z,99429.22
2018-01-18T22:33:41.663Z,99416.72
2018-01-18T22:36:10.123Z,99415.08
2018-01-18T22:38:38.518Z,99413.44
2018-01-18T22:41:06.955Z,99406.31
2018-01-18T22:43:35.384Z,99391.95
2018-01-18T22:46:03.832Z,99393.07
2018-01-18T22:48:32.268Z,99395.35
2018-01-18T22:51:00.649Z,99381.42
2018-01-18T22:53:29.104Z,99381.31
2018-01-18T22:55:57.481Z,99362.52
2018-01-18T22:58:25.904Z,99379.02
2018-01-18T23:00:54.262Z,99372.31
2018-01-18T23:03:22.740Z,99384.50
2018-01-18T23:05:51.164Z,99384.41
2018-01-18T23:08:19.604Z,99385.84
2018-01-18T23:10:47.974Z,99390.98
2018-01-18T23:13:16.361Z,99391.82
2018-01-18T23:15:44.776Z,99393.67
2018-01-18T23:18:13.197Z,99385.93
2018-01-18T23:20:41.693Z,99386.97
2018-01-18T23:23:10.141Z,99383.13
2018-01-18T23:25:38.524Z,99376.75
2018-01-18T23:28:06.950Z,99372.20
2018-01-18T23:30:35.340Z,99364.77
2018-01-18T23:33:03.765Z,99355.18
2018-01-18T23:35:32.153Z,99348.36
2018-01-18T23:38:00.582Z,99347.33
2018-01-18T23:40:29.041Z,99349.83
2018-01-18T23:42:57.513Z,99357.45
2018-01-18T23:45:25.993Z,99353.34
2018-01-18T23:47:54.404Z,99349.00
2018-01-18T23:50:22.888Z,99339.38
2018-01-18T23:52:51.340Z,99345.36
2018-01-18T23:55:19.772Z,99340.94
2018-01-18T23:57:48.157Z,99338.05
